Time;durP1;ratioP1;P1;durP2;ratioP2;P2;SDS_P1;SDS_P2;PMS_P1;PMS_P2;Temp;Humidity;BMP_temperature;BMP_pressure;BME280_temperature;BME280_humidity;BME280_pressure;Samples;Min_cycle;Max_cycle;Signal;HPM_P1;HPM_P2
2021/06/24 00:01:20;;;;;;;21.98;16.48;;;15.60;99.90;;;;;;4961714;28;20050;-89
2021/06/24 00:03:47;;;;;;;19.35;15.10;;;15.60;99.90;;;;;;4991418;28;20129;-90
2021/06/24 00:06:14;;;;;;;17.88;15.68;;;15.60;99.90;;;;;;4981447;28;20130;-89
2021/06/24 00:08:41;;;;;;;19.20;15.60;;;15.60;99.90;;;;;;4993624;28;20140;-90
2021/06/24 00:11:10;;;;;;;16.80;13.63;;;15.60;99.90;;;;;;4995128;28;20101;-89
2021/06/24 00:13:40;;;;;;;19.05;15.73;;;15.60;99.90;;;;;;4975104;28;20059;-88
2021/06/24 00:16:09;;;;;;;17.75;15.93;;;15.60;99.90;;;;;;4992115;28;20493;-90
2021/06/24 00:18:37;;;;;;;19.10;15.05;;;15.60;99.90;;;;;;4977367;28;20042;-87
2021/06/24 00:21:05;;;;;;;16.88;15.10;;;15.60;99.90;;;;;;4988087;28;20141;-90
2021/06/24 00:23:33;;;;;;;17.48;15.10;;;15.60;99.90;;;;;;4961498;28;20137;-90
2021/06/24 00:26:00;;;;;;;14.40;12.85;;;15.50;99.90;;;;;;4989475;28;20101;-88
2021/06/24 00:28:28;;;;;;;13.10;10.32;;;15.50;99.90;;;;;;4989506;28;20073;-89
2021/06/24 00:30:57;;;;;;;11.25;9.60;;;15.50;99.90;;;;;;4954322;28;20394;-90
2021/06/24 00:33:24;;;;;;;10.38;9.38;;;15.40;99.90;;;;;;4999232;28;20363;-89
2021/06/24 00:35:51;;;;;;;9.15;8.15;;;15.40;99.90;;;;;;4974327;28;20046;-90
2021/06/24 00:38:20;;;;;;;10.63;7.93;;;15.40;99.90;;;;;;4978421;28;20065;-90
2021/06/24 00:40:47;;;;;;;7.97;7.18;;;15.40;99.90;;;;;;4974874;28;20038;-89
2021/06/24 00:43:20;;;;;;;7.15;6.45;;;15.40;99.90;;;;;;4987999;28;20042;-89
2021/06/24 00:45:47;;;;;;;8.35;6.75;;;15.30;99.90;;;;;;4987779;28;20142;-88
2021/06/24 00:48:14;;;;;;;8.77;6.22;;;15.30;99.90;;;;;;4989696;28;20076;-88
2021/06/24 00:50:43;;;;;;;7.68;5.85;;;15.30;99.90;;;;;;4970156;28;20054;-89
2021/06/24 00:53:10;;;;;;;7.18;5.68;;;15.30;99.90;;;;;;4985828;28;20056;-89
2021/06/24 00:55:44;;;;;;;6.45;5.60;;;15.20;99.90;;;;;;4979964;28;20109;-88
2021/06/24 00:58:14;;;;;;;7.45;6.32;;;15.20;99.90;;;;;;4993281;28;20142;-88
2021/06/24 01:00:43;;;;;;;6.82;5.55;;;15.20;99.90;;;;;;4989183;28;20122;-89
2021/06/24 01:03:17;;;;;;;5.78;4.95;;;15.20;99.90;;;;;;4989917;28;20046;-88
2021/06/24 01:05:47;;;;;;;5.57;4.97;;;15.20;99.90;;;;;;4991593;28;20051;-89
2021/06/24 01:08:15;;;;;;;6.55;5.85;;;15.10;99.90;;;;;;4989466;28;20071;-88
2021/06/24 01:10:44;;;;;;;6.45;5.57;;;15.10;99.90;;;;;;4987932;28;20129;-88
2021/06/24 01:13:13;;;;;;;6.55;5.25;;;15.10;99.90;;;;;;4982909;28;20058;-89
2021/06/24 01:15:41;;;;;;;7.13;5.40;;;15.10;99.90;;;;;;4992363;28;20050;-88
2021/06/24 01:18:08;;;;;;;7.68;5.55;;;15.10;99.90;;;;;;4973715;28;20050;-91
2021/06/24 01:20:36;;;;;;;7.25;5.50;;;15.10;99.90;;;;;;5005047;28;20441;-89
2021/06/24 01:23:06;;;;;;;6.18;5.68;;;15.10;99.90;;;;;;4972092;28;20061;-89
2021/06/24 01:25:34;;;;;;;6.50;5.53;;;15.10;99.90;;;;;;4967495;28;20110;-87
2021/06/24 01:28:07;;;;;;;6.00;5.38;;;15.10;99.90;;;;;;4983626;28;20138;-90
2021/06/24 01:30:36;;;;;;;7.95;5.05;;;15.10;99.90;;;;;;4987188;28;20042;-90
2021/06/24 01:33:05;;;;;;;10.20;5.43;;;15.10;99.90;;;;;;4992446;28;20046;-88
2021/06/24 01:35:35;;;;;;;6.15;5.38;;;15.10;99.90;;;;;;4971003;28;20545;-90
2021/06/24 01:38:08;;;;;;;7.03;5.70;;;15.10;99.90;;;;;;4991568;28;20129;-90
2021/06/24 01:40:35;;;;;;;6.35;5.75;;;15.10;99.90;;;;;;4992518;28;20126;-89
2021/06/24 01:43:04;;;;;;;7.75;5.72;;;15.00;99.90;;;;;;4981858;28;20122;-88
2021/06/24 01:45:31;;;;;;;10.15;6.00;;;15.00;99.90;;;;;;4970896;28;20077;-90
2021/06/24 01:47:57;;;;;;;8.27;6.50;;;15.00;99.90;;;;;;4987885;28;20055;-89
2021/06/24 01:50:24;;;;;;;7.53;6.82;;;15.00;99.90;;;;;;4989259;28;20065;-89
2021/06/24 01:52:52;;;;;;;6.93;6.15;;;15.00;99.90;;;;;;4984153;28;20126;-88
2021/06/24 01:55:31;;;;;;;6.88;6.22;;;15.00;99.90;;;;;;4974927;28;20138;-90
2021/06/24 01:58:04;;;;;;;10.10;5.28;;;15.00;99.90;;;;;;4969120;28;20053;-88
2021/06/24 02:00:31;;;;;;;5.55;4.95;;;14.90;99.90;;;;;;4991084;28;20701;-88
2021/06/24 02:03:01;;;;;;;6.13;5.10;;;14.90;99.90;;;;;;4975363;28;20452;-88
2021/06/24 02:05:28;;;;;;;6.72;5.43;;;14.90;99.90;;;;;;4991938;28;20134;-88
2021/06/24 02:07:55;;;;;;;6.93;5.07;;;14.80;99.90;;;;;;4995028;28;20129;-87
2021/06/24 02:10:22;;;;;;;5.38;4.53;;;14.80;99.90;;;;;;4991159;28;20050;-89
2021/06/24 02:12:50;;;;;;;9.30;5.38;;;14.80;99.90;;;;;;4971612;28;20132;-88
2021/06/24 02:15:18;;;;;;;5.35;4.20;;;14.80;99.90;;;;;;4991414;28;20101;-88
2021/06/24 02:17:45;;;;;;;5.10;4.10;;;14.80;99.90;;;;;;4986950;28;20057;-89
2021/06/24 02:20:16;;;;;;;6.43;4.80;;;14.80;99.90;;;;;;4961321;28;20122;-91
2021/06/24 02:22:47;;;;;;;4.95;3.38;;;14.70;99.90;;;;;;4967204;28;20051;-89
2021/06/24 02:25:14;;;;;;;4.97;4.13;;;14.70;99.90;;;;;;4991158;28;20057;-89
2021/06/24 02:27:42;;;;;;;5.78;4.07;;;14.70;99.90;;;;;;4987810;28;20402;-88
2021/06/24 02:30:14;;;;;;;7.80;4.53;;;14.60;99.90;;;;;;4990353;28;20133;-88
2021/06/24 02:32:41;;;;;;;8.27;4.70;;;14.60;99.90;;;;;;4959308;28;20440;-88
2021/06/24 02:35:14;;;;;;;5.25;4.68;;;14.70;99.90;;;;;;4983870;28;20078;-89
2021/06/24 02:37:46;;;;;;;5.55;5.05;;;14.70;99.90;;;;;;4991696;28;20426;-88
2021/06/24 02:40:16;;;;;;;5.00;4.50;;;14.70;99.90;;;;;;4991728;28;20078;-88
2021/06/24 02:42:43;;;;;;;6.13;5.00;;;14.60;99.90;;;;;;4968626;28;20446;-89
2021/06/24 02:45:15;;;;;;;6.18;4.88;;;14.60;99.90;;;;;;4966595;28;20492;-88
2021/06/24 02:47:43;;;;;;;9.85;6.53;;;14.50;99.90;;;;;;4978319;28;20133;-88
2021/06/24 02:50:13;;;;;;;8.48;6.03;;;14.50;99.90;;;;;;4984939;28;20104;-88
2021/06/24 02:52:44;;;;;;;5.77;5.27;;;14.50;99.90;;;;;;4991787;28;20046;-90
2021/06/24 02:55:12;;;;;;;6.70;5.07;;;14.50;99.90;;;;;;4991071;28;20137;-88
2021/06/24 02:57:40;;;;;;;5.70;5.07;;;14.50;99.90;;;;;;4993233;28;20125;-87
2021/06/24 03:00:11;;;;;;;7.00;5.45;;;14.50;99.90;;;;;;4974305;28;20070;-88
2021/06/24 03:02:39;;;;;;;7.78;6.00;;;14.50;99.90;;;;;;4988626;28;20057;-89
2021/06/24 03:05:07;;;;;;;10.57;6.78;;;14.50;99.90;;;;;;4988527;28;20061;-88
2021/06/24 03:07:34;;;;;;;9.88;7.07;;;14.50;99.90;;;;;;4992563;28;20141;-87
2021/06/24 03:10:02;;;;;;;8.25;6.68;;;14.50;99.90;;;;;;4973238;28;20056;-88
2021/06/24 03:12:29;;;;;;;8.23;6.90;;;14.60;99.90;;;;;;4962471;28;20474;-90
2021/06/24 03:14:58;;;;;;;8.70;7.40;;;14.60;99.90;;;;;;4990772;28;20146;-87
2021/06/24 03:17:25;;;;;;;11.10;8.50;;;14.60;99.90;;;;;;4966799;28;20047;-88
2021/06/24 03:19:52;;;;;;;11.07;8.65;;;14.60;99.90;;;;;;4985971;28;20068;-88
2021/06/24 03:22:19;;;;;;;9.60;8.65;;;14.60;99.90;;;;;;4986094;28;20133;-89
2021/06/24 03:24:46;;;;;;;9.45;8.15;;;14.60;99.90;;;;;;4993885;28;20181;-88
2021/06/24 03:27:13;;;;;;;10.00;8.93;;;14.60;99.90;;;;;;4983204;28;20160;-88
2021/06/24 03:29:40;;;;;;;15.10;8.32;;;14.60;99.90;;;;;;4998696;28;20102;-89
2021/06/24 03:32:10;;;;;;;9.80;8.63;;;14.60;99.90;;;;;;5006476;28;20061;-89
2021/06/24 03:34:37;;;;;;;9.70;7.78;;;14.60;99.90;;;;;;5014285;28;20062;-89
2021/06/24 03:37:06;;;;;;;11.63;8.02;;;14.60;99.90;;;;;;4989785;28;20089;-88
2021/06/24 03:39:33;;;;;;;9.20;8.30;;;14.60;99.90;;;;;;4993088;28;20106;-88
2021/06/24 03:42:05;;;;;;;10.57;9.25;;;14.60;99.90;;;;;;4959921;28;20054;-88
2021/06/24 03:44:32;;;;;;;10.23;8.32;;;14.60;99.90;;;;;;4992896;28;20472;-90
2021/06/24 03:47:04;;;;;;;11.50;9.18;;;14.60;99.90;;;;;;4957349;28;20054;-88
2021/06/24 03:49:34;;;;;;;10.90;9.30;;;14.70;99.90;;;;;;4985778;28;20419;-88
2021/06/24 03:52:00;;;;;;;14.35;10.18;;;14.70;99.90;;;;;;4983262;28;20043;-88
2021/06/24 03:54:27;;;;;;;14.43;10.07;;;14.80;99.90;;;;;;4984505;28;20358;-90
2021/06/24 03:56:56;;;;;;;10.95;9.88;;;14.80;99.90;;;;;;4987492;28;20087;-88
2021/06/24 03:59:24;;;;;;;12.18;9.77;;;14.80;99.90;;;;;;4968496;28;20105;-88
2021/06/24 04:01:51;;;;;;;11.50;9.82;;;14.80;99.90;;;;;;4989525;28;20060;-88
2021/06/24 04:04:18;;;;;;;13.00;8.88;;;14.90;99.90;;;;;;4970535;28;20441;-88
2021/06/24 04:06:45;;;;;;;10.88;8.15;;;14.90;99.90;;;;;;4985197;28;20074;-88
2021/06/24 04:09:14;;;;;;;9.10;7.38;;;14.90;99.90;;;;;;4958085;28;20108;-88
2021/06/24 04:11:41;;;;;;;8.88;7.07;;;14.90;99.90;;;;;;4967888;28;20089;-90
2021/06/24 04:14:08;;;;;;;9.02;6.63;;;14.90;99.90;;;;;;4992678;28;20449;-90
2021/06/24 04:20:32;;;;;;;;;;;;;;;;;;;;;
2021/06/24 04:26:17;;;;;;;6.25;5.10;;;15.00;99.90;;;;;;4910257;29;20048;-92
2021/06/24 04:28:44;;;;;;;6.38;4.72;;;15.10;99.90;;;;;;4988155;28;20089;-89
2021/06/24 04:31:11;;;;;;;5.53;4.55;;;15.20;99.90;;;;;;4994753;28;20149;-91
2021/06/24 04:33:48;;;;;;;;;;;;;;;;;;;;;
2021/06/24 04:37:13;;;;;;;5.18;3.90;;;15.30;99.90;;;;;;4897895;29;20057;-94
2021/06/24 04:40:03;;;;;;;5.43;3.50;;;15.40;99.90;;;;;;4892426;29;20131;-91
2021/06/24 04:42:31;;;;;;;4.00;3.40;;;15.60;99.90;;;;;;4892626;29;20163;-91
2021/06/24 04:45:00;;;;;;;5.18;4.35;;;15.70;99.90;;;;;;4899923;29;20059;-90
2021/06/24 04:48:10;;;;;;;;;;;;;;;;;;;;;
2021/06/24 04:50:58;;;;;;;5.97;4.15;;;15.90;99.90;;;;;;4792568;29;20084;-92
2021/06/24 04:53:37;;;;;;;;;;;;;;;;;;;;;
2021/06/24 04:56:27;;;;;;;9.10;4.15;;;16.10;99.90;;;;;;4902567;29;20069;-94
2021/06/24 04:59:12;;;;;;;3.20;2.90;;;16.20;99.90;;;;;;4900646;29;20048;-93
2021/06/24 05:01:42;;;;;;;5.22;2.95;;;16.20;99.90;;;;;;4899463;29;20371;-92
2021/06/24 05:04:29;;;;;;;;;;;;;;;;;;;;;
2021/06/24 05:07:02;;;;;;;3.65;3.30;;;16.30;99.90;;;;;;4905066;29;20052;-92
2021/06/24 05:14:28;;;;;;;;;;;;;;;;;;;;;
2021/06/24 05:18:06;;;;;;;;;;;;;;;;;;;;;
2021/06/24 05:20:55;;;;;;;4.40;3.45;;;16.50;99.90;;;;;;4823913;28;20061;-91
2021/06/24 05:23:45;;;;;;;5.90;3.17;;;16.50;99.90;;;;;;4945882;28;20046;-90
2021/06/24 05:26:12;;;;;;;9.43;3.30;;;16.50;99.90;;;;;;4971205;28;20141;-90
2021/06/24 05:28:41;;;;;;;4.13;3.28;;;16.40;99.90;;;;;;4953511;28;20047;-91
2021/06/24 05:31:10;;;;;;;6.38;3.78;;;16.30;99.90;;;;;;4970366;28;20050;-90
2021/06/24 05:33:37;;;;;;;3.70;3.35;;;16.30;99.90;;;;;;4951888;28;20058;-91
2021/06/24 05:36:05;;;;;;;3.30;3.00;;;16.40;99.90;;;;;;4955461;28;20051;-89
2021/06/24 05:38:32;;;;;;;5.65;3.03;;;16.40;99.90;;;;;;4951558;29;20143;-89
2021/06/24 05:41:02;;;;;;;4.60;2.88;;;16.40;99.90;;;;;;4970694;28;20137;-90
2021/06/24 05:43:31;;;;;;;4.65;3.35;;;16.40;99.90;;;;;;4954817;28;20560;-90
2021/06/24 05:46:00;;;;;;;5.53;3.70;;;16.50;99.90;;;;;;4973017;28;20050;-89
2021/06/24 05:48:27;;;;;;;5.30;4.13;;;16.60;99.90;;;;;;4973784;28;20125;-90
2021/06/24 05:50:54;;;;;;;4.50;3.90;;;16.70;99.90;;;;;;4955289;28;20074;-89
2021/06/24 05:53:21;;;;;;;4.78;4.28;;;16.80;99.90;;;;;;4970033;28;20089;-90
2021/06/24 05:55:54;;;;;;;4.35;3.72;;;16.80;99.90;;;;;;4966651;28;20058;-88
2021/06/24 05:58:24;;;;;;;5.68;4.70;;;16.80;99.90;;;;;;4955720;28;20050;-89
2021/06/24 06:00:55;;;;;;;5.10;4.43;;;17.00;99.90;;;;;;4964440;28;20129;-88
2021/06/24 06:03:28;;;;;;;7.53;4.43;;;17.30;99.90;;;;;;4957740;28;20065;-90
2021/06/24 06:05:57;;;;;;;7.38;4.18;;;17.50;99.90;;;;;;4970453;28;20749;-89
2021/06/24 06:08:24;;;;;;;6.43;4.32;;;17.70;99.90;;;;;;4966123;28;20130;-88
2021/06/24 06:10:51;;;;;;;4.57;4.13;;;17.80;99.90;;;;;;4953408;28;20114;-88
2021/06/24 06:13:22;;;;;;;6.57;4.05;;;18.00;99.90;;;;;;4967729;28;20122;-91
2021/06/24 06:15:50;;;;;;;6.85;3.47;;;18.30;99.90;;;;;;4929274;28;20123;-89
2021/06/24 06:18:24;;;;;;;10.45;4.20;;;18.60;99.90;;;;;;4969466;28;20370;-90
2021/06/24 06:20:54;;;;;;;4.93;4.00;;;18.80;99.90;;;;;;4954573;28;20130;-88
2021/06/24 06:23:23;;;;;;;6.85;4.28;;;18.80;99.90;;;;;;4976359;28;20129;-90
2021/06/24 06:25:51;;;;;;;9.15;3.65;;;19.00;99.90;;;;;;4979866;28;20062;-91
2021/06/24 06:28:23;;;;;;;;;;;19.50;99.90;;;;;;4970446;28;20149;-89
2021/06/24 06:30:51;;;;;;;7.50;3.78;;;20.10;99.90;;;;;;4972490;28;20296;-89
2021/06/24 06:33:21;;;;;;;5.53;3.70;;;20.20;99.90;;;;;;4969869;28;20434;-89
2021/06/24 06:35:49;;;;;;;6.50;3.90;;;20.20;99.90;;;;;;4967325;28;20056;-91
2021/06/24 06:38:17;;;;;;;4.65;3.50;;;20.20;99.90;;;;;;4956731;28;20434;-86
2021/06/24 06:40:47;;;;;;;4.55;3.90;;;20.10;99.90;;;;;;4971223;28;20508;-87
2021/06/24 06:43:19;;;;;;;4.53;4.13;;;19.90;99.90;;;;;;4972719;28;20689;-89
2021/06/24 06:45:48;;;;;;;4.43;3.85;;;19.80;99.90;;;;;;4952449;28;20125;-90
2021/06/24 06:48:18;;;;;;;7.05;3.80;;;19.70;99.90;;;;;;4949150;28;20129;-88
2021/06/24 06:50:48;;;;;;;4.47;3.53;;;19.70;99.90;;;;;;4954703;28;20089;-90
2021/06/24 06:53:18;;;;;;;4.15;3.72;;;19.80;99.90;;;;;;4965432;28;20074;-90
2021/06/24 06:55:46;;;;;;;3.63;3.30;;;19.90;99.90;;;;;;4968735;28;20049;-89
2021/06/24 06:58:12;;;;;;;3.97;3.50;;;19.90;99.90;;;;;;4970161;28;20652;-89
2021/06/24 07:00:39;;;;;;;5.97;3.80;;;20.00;99.90;;;;;;4952861;28;20074;-89
2021/06/24 07:03:06;;;;;;;4.88;3.28;;;20.00;99.90;;;;;;4971919;28;20134;-88
2021/06/24 07:05:38;;;;;;;3.80;2.85;;;19.90;99.90;;;;;;4972463;28;20097;-87
2021/06/24 07:08:08;;;;;;;4.00;3.60;;;20.00;99.90;;;;;;4948977;28;20051;-87
2021/06/24 07:10:37;;;;;;;7.30;3.85;;;20.00;99.90;;;;;;4949421;29;20126;-90
2021/06/24 07:13:04;;;;;;;3.33;3.03;;;20.30;99.90;;;;;;4950218;28;20090;-89
2021/06/24 07:15:31;;;;;;;6.72;3.08;;;21.00;99.90;;;;;;4952789;28;20051;-87
2021/06/24 07:17:59;;;;;;;4.40;2.97;;;21.20;99.90;;;;;;4959725;28;20109;-89
2021/06/24 07:20:26;;;;;;;3.60;3.28;;;21.00;99.90;;;;;;4969320;28;20326;-89
2021/06/24 07:22:55;;;;;;;4.93;3.63;;;20.70;99.90;;;;;;4971024;28;20610;-88
2021/06/24 07:25:22;;;;;;;6.63;3.60;;;20.50;99.90;;;;;;4971364;28;20054;-90
2021/06/24 07:27:51;;;;;;;4.90;3.15;;;20.20;99.90;;;;;;4969815;28;20461;-90
2021/06/24 07:30:21;;;;;;;3.90;3.40;;;20.00;99.90;;;;;;4969312;28;20109;-89
2021/06/24 07:32:53;;;;;;;6.10;3.60;;;19.70;99.90;;;;;;4971149;28;20078;-90
2021/06/24 07:35:20;;;;;;;5.85;3.30;;;19.80;99.90;;;;;;4971633;28;20453;-90
2021/06/24 07:37:47;;;;;;;6.43;3.20;;;19.70;99.90;;;;;;4965140;28;20063;-89
2021/06/24 07:40:17;;;;;;;3.72;2.88;;;20.00;99.90;;;;;;4971016;28;20058;-89
2021/06/24 07:42:45;;;;;;;3.42;2.78;;;20.30;99.90;;;;;;4957981;28;20061;-90
2021/06/24 07:45:13;;;;;;;10.00;3.13;;;20.60;99.90;;;;;;4971683;28;20133;-89
2021/06/24 07:47:43;;;;;;;4.20;3.10;;;21.10;99.90;;;;;;4971278;28;20440;-89
2021/06/24 07:50:10;;;;;;;3.38;2.65;;;21.60;99.90;;;;;;4957443;28;20161;-91
2021/06/24 07:52:41;;;;;;;7.18;2.78;;;22.10;99.90;;;;;;4967370;28;20482;-90
2021/06/24 07:55:09;;;;;;;4.87;2.43;;;22.50;99.90;;;;;;4969475;28;20130;-91
2021/06/24 07:57:36;;;;;;;3.17;2.58;;;22.70;99.90;;;;;;4974051;28;20050;-90
2021/06/24 08:00:06;;;;;;;3.42;2.70;;;22.70;99.90;;;;;;4975383;28;20042;-89
2021/06/24 08:02:35;;;;;;;3.13;2.20;;;22.50;99.90;;;;;;4968595;28;20057;-90
2021/06/24 08:05:06;;;;;;;4.70;2.20;;;22.20;99.90;;;;;;4978122;28;20053;-90
2021/06/24 08:07:34;;;;;;;2.50;2.28;;;21.70;99.90;;;;;;4969133;28;20054;-89
2021/06/24 08:10:04;;;;;;;4.57;2.70;;;21.60;99.90;;;;;;4973809;28;20427;-90
2021/06/24 08:12:31;;;;;;;12.07;2.50;;;21.10;99.90;;;;;;4974153;28;20442;-88
2021/06/24 08:15:02;;;;;;;4.43;2.58;;;20.80;99.90;;;;;;4968745;28;20059;-91
2021/06/24 08:17:31;;;;;;;4.57;2.00;;;20.50;99.90;;;;;;4972645;28;20138;-90
2021/06/24 08:19:58;;;;;;;3.90;2.20;;;20.60;99.90;;;;;;4973954;28;20093;-91
2021/06/24 08:22:27;;;;;;;2.97;2.20;;;21.00;99.90;;;;;;4955321;28;20133;-91
2021/06/24 08:24:54;;;;;;;4.22;2.17;;;21.60;99.90;;;;;;4973633;28;20601;-92
2021/06/24 08:27:29;;;;;;;3.65;2.33;;;22.10;99.90;;;;;;4957011;28;20055;-90
2021/06/24 08:30:00;;;;;;;3.03;1.92;;;22.40;99.90;;;;;;4954482;28;20062;-90
2021/06/24 08:32:27;;;;;;;2.25;2.00;;;22.40;99.90;;;;;;4975037;28;20054;-90
2021/06/24 08:35:09;;;;;;;2.63;2.42;;;22.40;99.90;;;;;;4955014;28;20135;-89
2021/06/24 08:37:47;;;;;;;;;;;21.70;99.90;;;;;;4974749;28;20110;-90
2021/06/24 08:40:16;;;;;;;4.93;2.33;;;21.60;99.90;;;;;;4973028;28;19933;-90
2021/06/24 08:42:43;;;;;;;3.95;2.30;;;21.90;99.90;;;;;;4955189;28;21649;-88
2021/06/24 08:45:11;;;;;;;2.80;1.98;;;22.50;99.90;;;;;;4951485;28;20075;-89
2021/06/24 08:47:42;;;;;;;2.78;2.40;;;22.70;99.90;;;;;;4971932;28;20067;-89
2021/06/24 08:50:12;;;;;;;4.90;2.40;;;22.40;99.90;;;;;;4954121;28;20109;-90
2021/06/24 08:52:41;;;;;;;2.53;2.17;;;22.20;99.90;;;;;;4955709;28;20054;-93
2021/06/24 08:55:08;;;;;;;3.40;2.40;;;22.20;99.90;;;;;;4967614;28;20053;-87
2021/06/24 08:57:38;;;;;;;2.28;2.08;;;22.20;99.90;;;;;;4956220;28;20070;-91
2021/06/24 09:00:06;;;;;;;2.70;2.50;;;21.90;99.90;;;;;;4951478;28;20058;-88
2021/06/24 09:02:47;;;;;;;4.03;2.55;;;21.50;99.90;;;;;;4960937;28;20047;-91
2021/06/24 09:05:49;;;;;;;3.75;2.53;;;21.60;99.90;;;;;;4960704;28;20047;-91
2021/06/24 09:08:34;;;;;;;3.75;2.50;;;21.50;99.90;;;;;;4958605;28;20042;-91
2021/06/24 09:11:25;;;;;;;3.10;2.35;;;21.30;99.90;;;;;;4963050;28;20450;-91
2021/06/24 09:14:02;;;;;;;2.58;2.33;;;21.10;99.90;;;;;;4987239;28;20442;-89
2021/06/24 09:16:40;;;;;;;2.47;2.28;;;21.30;99.90;;;;;;4967855;28;20050;-90
2021/06/24 09:19:23;;;;;;;2.97;2.33;;;21.90;99.90;;;;;;4961068;28;20116;-90
2021/06/24 09:22:07;;;;;;;5.80;2.17;;;23.00;99.90;;;;;;4958339;28;20529;-90
2021/06/24 09:24:36;;;;;;;2.42;2.22;;;23.30;99.90;;;;;;4941434;28;20051;-90
2021/06/24 09:27:25;;;;;;;7.50;2.25;;;23.60;99.90;;;;;;4952497;29;20086;-90
2021/06/24 09:30:04;;;;;;;2.40;2.20;;;23.20;99.90;;;;;;4938495;28;20047;-90
2021/06/24 09:32:35;;;;;;;2.92;1.77;;;23.00;99.90;;;;;;4939200;29;20058;-87
2021/06/24 09:35:04;;;;;;;3.47;1.55;;;23.30;99.90;;;;;;4948683;28;20439;-87
2021/06/24 09:38:00;;;;;;;2.53;1.70;;;23.50;99.90;;;;;;4951681;29;20118;-87
2021/06/24 09:40:46;;;;;;;2.22;1.50;;;24.30;99.90;;;;;;4950171;28;20070;-87
2021/06/24 09:43:16;;;;;;;1.73;1.27;;;25.10;99.70;;;;;;4946562;29;20051;-88
2021/06/24 09:46:06;;;;;;;7.70;1.63;;;25.50;95.00;;;;;;4950292;29;20444;-90
2021/06/24 09:48:47;;;;;;;1.98;1.20;;;25.40;98.90;;;;;;4953628;29;20051;-88
2021/06/24 09:51:21;;;;;;;1.42;1.33;;;25.60;93.70;;;;;;4952238;28;20147;-87
2021/06/24 09:54:12;;;;;;;1.15;1.05;;;25.00;92.40;;;;;;4952611;28;20047;-89
2021/06/24 09:56:52;;;;;;;1.83;1.45;;;24.70;92.60;;;;;;4953145;29;20126;-88
2021/06/24 09:59:19;;;;;;;1.00;0.90;;;23.40;94.10;;;;;;4951993;28;20078;-90
2021/06/24 10:01:48;;;;;;;1.65;1.20;;;22.70;95.80;;;;;;4952869;28;20051;-90
2021/06/24 10:04:22;;;;;;;1.67;1.02;;;22.10;99.00;;;;;;4952435;29;20046;-89
2021/06/24 10:06:54;;;;;;;2.38;1.30;;;21.80;99.90;;;;;;4925262;29;20139;-93
2021/06/24 10:09:27;;;;;;;1.60;1.50;;;21.60;99.90;;;;;;4951812;28;20051;-91
2021/06/24 10:11:55;;;;;;;1.65;1.55;;;21.30;99.90;;;;;;4950195;28;20043;-91
2021/06/24 10:14:22;;;;;;;3.95;1.52;;;21.40;99.90;;;;;;4952270;28;20044;-92
2021/06/24 10:17:00;;;;;;;1.48;1.33;;;21.60;99.90;;;;;;4958553;28;20054;-92
2021/06/24 10:19:35;;;;;;;2.17;1.38;;;21.90;99.90;;;;;;4981247;28;20039;-91
2021/06/24 10:22:21;;;;;;;1.20;1.20;;;22.20;99.90;;;;;;4975125;28;20134;-90
2021/06/24 10:25:10;;;;;;;1.27;1.15;;;22.50;99.90;;;;;;4956740;28;20069;-93
2021/06/24 10:27:43;;;;;;;5.95;1.20;;;22.20;99.90;;;;;;4970798;28;20062;-92
2021/06/24 10:30:18;;;;;;;2.58;1.13;;;22.00;99.90;;;;;;4970989;28;20658;-90
2021/06/24 10:33:12;;;;;;;1.83;1.33;;;21.70;99.90;;;;;;4969433;28;20427;-90
2021/06/24 10:36:15;;;;;;;1.30;1.20;;;21.80;99.90;;;;;;4955010;28;20484;-90
2021/06/24 10:38:42;;;;;;;1.40;1.30;;;22.30;99.90;;;;;;4973427;28;20047;-90
2021/06/24 10:41:09;;;;;;;4.43;1.23;;;22.60;99.90;;;;;;4971220;28;20058;-89
2021/06/24 10:43:45;;;;;;;2.45;1.42;;;22.80;99.90;;;;;;4967970;28;20082;-92
2021/06/24 10:46:16;;;;;;;1.35;1.27;;;23.40;99.60;;;;;;4952329;28;20097;-90
2021/06/24 10:48:44;;;;;;;2.35;1.30;;;23.70;98.40;;;;;;4966776;28;20134;-92
2021/06/24 10:51:14;;;;;;;1.63;1.42;;;24.20;96.80;;;;;;4956624;28;20125;-90
2021/06/24 10:54:01;;;;;;;3.28;1.10;;;24.90;94.50;;;;;;4979572;28;20177;-90
2021/06/24 10:56:45;;;;;;;1.27;1.17;;;25.00;92.40;;;;;;4978968;28;20149;-91
2021/06/24 10:59:25;;;;;;;1.95;1.13;;;24.40;93.20;;;;;;4970850;28;20450;-92
2021/06/24 11:02:08;;;;;;;1.40;1.30;;;24.10;93.30;;;;;;4976179;28;20137;-90
2021/06/24 11:04:44;;;;;;;2.38;1.20;;;24.30;94.50;;;;;;4963253;28;20058;-93
2021/06/24 11:07:15;;;;;;;3.78;1.20;;;24.30;93.50;;;;;;4968832;28;20113;-91
2021/06/24 11:10:18;;;;;;;0.73;0.68;;;24.30;92.30;;;;;;4955245;28;20477;-93
2021/06/24 11:12:49;;;;;;;1.42;1.02;;;24.00;92.00;;;;;;4971439;28;20109;-90
2021/06/24 11:15:43;;;;;;;0.70;0.70;;;24.40;92.30;;;;;;4967713;28;20359;-90
2021/06/24 11:18:33;;;;;;;1.50;1.00;;;24.70;91.40;;;;;;4969178;28;20357;-91
2021/06/24 11:21:04;;;;;;;0.70;0.70;;;24.50;89.60;;;;;;4964609;28;20043;-91
2021/06/24 11:23:35;;;;;;;1.05;0.88;;;23.80;92.60;;;;;;4967927;28;20043;-88
2021/06/24 11:26:07;;;;;;;1.25;0.98;;;23.00;94.40;;;;;;4957396;28;20109;-89
2021/06/24 11:28:39;;;;;;;1.67;1.02;;;23.00;95.90;;;;;;4982464;28;20062;-88
2021/06/24 11:31:07;;;;;;;1.25;0.88;;;23.10;95.00;;;;;;4973196;28;20125;-88
2021/06/24 11:33:38;;;;;;;2.40;0.85;;;22.60;95.00;;;;;;4968359;28;20047;-86
2021/06/24 11:36:24;;;;;;;1.27;0.80;;;22.30;95.60;;;;;;4972089;28;20134;-89
2021/06/24 11:38:55;;;;;;;2.33;0.90;;;21.60;96.70;;;;;;4972509;28;20062;-87
2021/06/24 11:41:27;;;;;;;1.15;1.00;;;21.30;97.80;;;;;;4971871;28;20113;-88
2021/06/24 11:48:17;;;;;;;2.25;0.90;;;21.10;99.90;;;;;;4864711;29;20429;-89
2021/06/24 12:03:55;;;;;;;0.85;0.77;;;23.60;94.40;;;;;;4937192;29;20067;-88
2021/06/24 12:07:07;;;;;;;;;;;;;;;;;;;;;
2021/06/24 12:10:10;;;;;;;;;;;;;;;;;;;;;
2021/06/24 12:12:40;;;;;;;0.55;0.55;;;24.00;88.90;;;;;;4873061;29;20113;-90
2021/06/24 12:15:26;;;;;;;2.35;0.60;;;23.70;89.70;;;;;;4865454;29;20520;-90
2021/06/24 12:17:59;;;;;;;2.50;0.75;;;23.50;88.80;;;;;;4890994;29;20040;-91
2021/06/24 12:20:41;;;;;;;2.50;0.43;;;23.60;87.30;;;;;;4906264;29;20139;-92
2021/06/24 12:23:46;;;;;;;0.57;0.40;;;23.40;85.00;;;;;;4920502;29;20103;-93
2021/06/24 12:26:27;;;;;;;0.77;0.45;;;23.70;79.00;;;;;;4861388;29;20230;-92
2021/06/24 12:32:02;;;;;;;0.68;0.30;;;25.20;75.70;;;;;;4876421;29;20053;-90
2021/06/24 12:34:43;;;;;;;0.52;0.50;;;25.60;74.70;;;;;;4900925;29;20063;-93
2021/06/24 12:37:49;;;;;;;;;;;;;;;;;;;;;
2021/06/24 12:40:58;;;;;;;0.90;0.30;;;26.00;65.70;;;;;;4896942;29;20412;-92
2021/06/24 12:44:19;;;;;;;0.70;0.30;;;26.40;64.10;;;;;;4857790;29;20054;-92
2021/06/24 12:47:39;;;;;;;;;;;;;;;;;;;;;
2021/06/24 12:51:04;;;;;;;3.17;0.40;;;27.60;61.10;;;;;;4712416;30;20252;-92
2021/06/24 12:53:41;;;;;;;1.60;0.38;;;28.20;55.30;;;;;;4749811;30;20048;-93
2021/06/24 13:00:06;;;;;;;0.50;0.25;;;28.00;53.80;;;;;;4811252;29;20094;-91
2021/06/24 13:04:20;;;;;;;;;;;;;;;;;;;;;
2021/06/24 13:15:01;;;;;;;0.30;0.30;;;26.40;57.60;;;;;;4841460;29;20103;-93
2021/06/24 13:17:35;;;;;;;3.17;0.63;;;25.10;60.10;;;;;;4880095;29;20364;-91
2021/06/24 13:20:02;;;;;;;0.80;0.80;;;24.10;69.90;;;;;;4905138;29;20044;-90
2021/06/24 13:22:33;;;;;;;2.63;1.27;;;23.50;79.70;;;;;;4970657;28;20054;-89
2021/06/24 13:25:03;;;;;;;7.40;1.05;;;22.60;89.80;;;;;;4944498;28;20066;-90
2021/06/24 13:31:37;;;;;;;5.20;1.38;;;19.40;99.90;;;;;;4871396;29;20394;-93
2021/06/24 13:42:07;;;;;;;;;;;;;;;;;;;;;
2021/06/24 13:45:15;;;;;;;1.63;1.02;;;16.50;99.90;;;;;;4766786;30;20062;-92
2021/06/24 13:51:34;;;;;;;;;;;;;;;;;;;;;
2021/06/24 13:55:00;;;;;;;2.78;1.20;;;17.20;99.90;;;;;;4688745;30;20334;-93
2021/06/24 13:57:28;;;;;;;5.25;1.20;;;17.50;99.90;;;;;;4726719;30;20855;-91
2021/06/24 13:59:54;;;;;;;1.58;1.25;;;17.70;99.90;;;;;;4762459;29;20034;-91
2021/06/24 14:02:27;;;;;;;1.08;1.00;;;17.80;99.90;;;;;;4798332;29;20057;-91
2021/06/24 14:05:11;;;;;;;2.38;1.30;;;17.90;99.90;;;;;;4949582;28;20047;-90
2021/06/24 14:07:45;;;;;;;1.98;1.30;;;18.00;99.90;;;;;;4969372;28;20162;-91
2021/06/24 14:10:12;;;;;;;2.10;1.13;;;18.10;99.90;;;;;;4970025;28;20125;-91
2021/06/24 14:46:17;;;;;;;;;;;;;;;;;;;;;
2021/06/24 15:05:53;;;;;;;2.70;0.88;;;23.30;99.90;;;;;;4962914;28;20146;-93
2021/06/24 15:08:23;;;;;;;5.57;1.23;;;23.10;99.90;;;;;;4953209;29;20047;-93
2021/06/24 15:10:54;;;;;;;2.13;0.80;;;22.90;99.90;;;;;;4956411;29;20055;-91
2021/06/24 15:14:05;;;;;;;3.78;1.02;;;22.80;99.90;;;;;;4942171;29;20137;-95
2021/06/24 15:16:55;;;;;;;3.58;0.88;;;23.20;99.90;;;;;;4954311;29;20110;-92
2021/06/24 15:19:24;;;;;;;0.75;0.75;;;23.60;99.90;;;;;;4953642;29;20071;-93
2021/06/24 15:22:05;;;;;;;3.63;1.00;;;24.30;99.90;;;;;;4952879;29;20130;-93
2021/06/24 15:25:20;;;;;;;6.25;1.20;;;24.80;99.90;;;;;;4963586;28;20150;-92
2021/06/24 15:27:51;;;;;;;3.65;0.93;;;25.10;99.90;;;;;;4940560;28;20149;-93
2021/06/24 15:31:04;;;;;;;4.18;1.35;;;25.00;99.90;;;;;;4931373;29;20047;-94